createdAt,value
2023-05-23T00:01:31.906Z,24.70
2023-05-23T00:03:59.344Z,24.70
2023-05-23T00:06:26.779Z,24.70
2023-05-23T00:08:53.758Z,24.70
2023-05-23T00:11:26.852Z,24.60
2023-05-23T00:13:54.200Z,24.60
2023-05-23T00:16:21.686Z,24.50
2023-05-23T00:18:50.260Z,24.50
2023-05-23T00:21:17.207Z,24.40
2023-05-23T00:23:44.059Z,24.40
2023-05-23T00:26:11.638Z,24.40
2023-05-23T00:28:43.059Z,24.40
2023-05-23T00:31:09.885Z,24.30
2023-05-23T00:33:37.165Z,24.30
2023-05-23T00:36:04.083Z,24.30
2023-05-23T00:38:30.897Z,24.20
2023-05-23T00:40:57.808Z,24.20
2023-05-23T00:43:25.754Z,24.20
2023-05-23T00:45:52.687Z,24.10
2023-05-23T00:48:19.634Z,24.10
2023-05-23T00:50:46.749Z,24.10
2023-05-23T00:53:13.742Z,24.10
2023-05-23T00:55:41.001Z,24.00
2023-05-23T00:58:08.368Z,24.00
2023-05-23T01:00:35.782Z,24.00
2023-05-23T01:03:03.184Z,24.00
2023-05-23T01:05:30.489Z,24.00
2023-05-23T01:07:57.412Z,23.90
2023-05-23T01:10:27.532Z,23.90
2023-05-23T01:12:54.388Z,23.90
2023-05-23T01:15:27.152Z,23.90
2023-05-23T01:18:08.549Z,23.90
2023-05-23T01:20:40.119Z,23.80
2023-05-23T01:23:41.133Z,23.80
2023-05-23T01:26:37.716Z,23.80
2023-05-23T01:29:11.136Z,23.70
2023-05-23T01:31:44.163Z,23.80
2023-05-23T01:34:13.976Z,23.70
2023-05-23T01:36:43.469Z,23.70
2023-05-23T01:39:10.752Z,23.70
2023-05-23T01:41:37.810Z,23.70
2023-05-23T01:44:06.007Z,23.70
2023-05-23T01:46:34.262Z,23.70
2023-05-23T01:49:03.849Z,23.60
2023-05-23T01:51:32.902Z,23.60
2023-05-23T01:54:00.785Z,23.60
2023-05-23T01:56:28.877Z,23.50
2023-05-23T01:58:55.767Z,23.50
2023-05-23T02:01:23.023Z,23.50
2023-05-23T02:03:51.549Z,23.40
2023-05-23T02:06:18.479Z,23.40
2023-05-23T02:08:46.961Z,23.40
2023-05-23T02:11:13.887Z,23.40
2023-05-23T02:13:41.191Z,23.40
2023-05-23T02:16:08.289Z,23.30
2023-05-23T02:18:38.278Z,23.30
2023-05-23T02:21:06.415Z,23.30
2023-05-23T02:23:33.232Z,23.20
2023-05-23T02:26:00.130Z,23.20
2023-05-23T02:28:26.981Z,23.10
2023-05-23T02:30:53.876Z,23.10
2023-05-23T02:33:20.744Z,23.00
2023-05-23T02:35:49.052Z,23.00
2023-05-23T02:38:16.672Z,23.00
2023-05-23T02:40:43.564Z,22.90
2023-05-23T02:43:10.639Z,22.90
2023-05-23T02:45:37.523Z,22.90
2023-05-23T02:48:04.652Z,22.90
2023-05-23T02:50:31.599Z,22.80
2023-05-23T02:52:58.462Z,22.80
2023-05-23T02:55:25.411Z,22.80
2023-05-23T02:57:52.433Z,22.70
2023-05-23T03:00:19.480Z,22.70
2023-05-23T03:02:50.880Z,22.70
2023-05-23T03:05:18.406Z,22.70
2023-05-23T03:07:45.992Z,22.70
2023-05-23T03:10:13.099Z,22.70
2023-05-23T03:12:40.080Z,22.70
2023-05-23T03:15:08.665Z,22.60
2023-05-23T03:17:39.490Z,22.60
2023-05-23T03:20:09.864Z,22.60
2023-05-23T03:22:38.777Z,22.60
2023-05-23T03:25:06.548Z,22.60
2023-05-23T03:27:33.853Z,22.60
2023-05-23T03:30:01.067Z,22.60
2023-05-23T03:32:28.253Z,22.60
2023-05-23T03:34:55.254Z,22.60
2023-05-23T03:37:22.300Z,22.60
2023-05-23T03:39:49.327Z,22.60
2023-05-23T03:42:16.369Z,22.60
2023-05-23T03:44:43.366Z,22.60
2023-05-23T03:47:11.869Z,22.70
2023-05-23T03:49:41.368Z,22.70
2023-05-23T03:52:08.657Z,22.70
2023-05-23T03:54:36.057Z,22.70
2023-05-23T03:57:03.308Z,22.70
2023-05-23T03:59:30.732Z,22.70
2023-05-23T04:01:59.539Z,22.80
2023-05-23T04:04:29.775Z,22.80
2023-05-23T04:06:58.221Z,22.80
2023-05-23T04:09:25.544Z,22.80
2023-05-23T04:11:53.554Z,22.80
2023-05-23T04:14:22.645Z,22.80
2023-05-23T04:16:50.143Z,22.80
2023-05-23T04:19:17.855Z,22.80
2023-05-23T04:21:45.012Z,22.80
2023-05-23T04:24:16.537Z,22.80
2023-05-23T04:26:43.467Z,22.90
2023-05-23T04:29:12.252Z,22.90
2023-05-23T04:31:39.341Z,22.80
2023-05-23T04:34:08.037Z,22.80
2023-05-23T04:36:38.421Z,22.90
2023-05-23T04:39:06.052Z,22.80
2023-05-23T04:41:37.286Z,22.80
2023-05-23T04:44:18.060Z,22.80
2023-05-23T04:47:04.036Z,22.70
2023-05-23T04:49:48.972Z,22.70
2023-05-23T04:52:15.816Z,22.70
2023-05-23T04:54:45.070Z,22.60
2023-05-23T04:57:12.765Z,22.60
2023-05-23T04:59:39.618Z,22.60
2023-05-23T05:02:07.797Z,22.60
2023-05-23T05:04:35.300Z,22.60
2023-05-23T05:07:04.165Z,22.60
2023-05-23T05:09:33.769Z,22.50
2023-05-23T05:12:00.869Z,22.50
2023-05-23T05:14:28.864Z,22.50
2023-05-23T05:16:57.770Z,22.50
2023-05-23T05:19:32.034Z,22.50
2023-05-23T05:22:00.164Z,22.50
2023-05-23T05:24:27.910Z,22.50
2023-05-23T05:26:55.714Z,22.50
2023-05-23T05:29:22.802Z,22.50
2023-05-23T05:31:49.690Z,22.50
2023-05-23T05:34:16.534Z,22.50
2023-05-23T05:36:47.981Z,22.50
2023-05-23T05:39:16.951Z,22.50
2023-05-23T05:41:43.783Z,22.50
2023-05-23T05:44:10.627Z,22.50
2023-05-23T05:46:37.638Z,22.50
2023-05-23T05:49:04.712Z,22.50
2023-05-23T05:51:31.868Z,22.50
2023-05-23T05:53:59.070Z,22.50
2023-05-23T05:56:26.465Z,22.50
2023-05-23T05:58:53.803Z,22.50
2023-05-23T06:01:21.558Z,22.50
2023-05-23T06:03:49.002Z,22.50
2023-05-23T06:06:16.262Z,22.50
2023-05-23T06:08:43.442Z,22.50
2023-05-23T06:11:14.897Z,22.60
2023-05-23T06:13:41.761Z,22.60
2023-05-23T06:16:08.641Z,22.60
2023-05-23T06:18:35.675Z,22.60
2023-05-23T06:21:02.555Z,22.60
2023-05-23T06:23:29.446Z,22.60
2023-05-23T06:25:56.669Z,22.60
2023-05-23T06:28:23.521Z,22.60
2023-05-23T06:30:51.578Z,22.60
2023-05-23T06:33:18.442Z,22.60
2023-05-23T06:35:45.852Z,22.60
2023-05-23T06:38:12.880Z,22.60
2023-05-23T06:40:41.360Z,22.60
2023-05-23T06:43:09.762Z,22.60
2023-05-23T06:46:06.841Z,22.60
2023-05-23T06:48:33.869Z,22.60
2023-05-23T06:51:00.957Z,22.60
2023-05-23T06:53:28.022Z,22.70
2023-05-23T06:55:55.001Z,22.70
2023-05-23T06:58:25.167Z,22.70
2023-05-23T07:00:52.908Z,22.70
2023-05-23T07:03:23.963Z,22.70
2023-05-23T07:05:51.818Z,22.70
2023-05-23T07:08:19.881Z,22.70
2023-05-23T07:10:57.680Z,22.70
2023-05-23T07:13:33.819Z,22.70
2023-05-23T07:16:00.933Z,22.70
2023-05-23T07:18:27.835Z,22.70
2023-05-23T07:20:55.370Z,22.70
2023-05-23T07:23:24.267Z,22.70
2023-05-23T07:26:01.929Z,22.70
2023-05-23T07:28:37.702Z,22.70
2023-05-23T07:31:05.047Z,22.70
2023-05-23T07:33:34.517Z,22.60
2023-05-23T07:36:03.999Z,22.60
2023-05-23T07:38:31.035Z,22.60
2023-05-23T07:41:09.993Z,22.60
2023-05-23T07:43:38.385Z,22.60
2023-05-23T07:46:05.999Z,22.60
2023-05-23T07:48:33.240Z,22.60
2023-05-23T07:51:00.254Z,22.60
2023-05-23T07:53:27.212Z,22.60
2023-05-23T07:55:54.435Z,22.60
2023-05-23T07:58:24.011Z,22.60
2023-05-23T08:00:52.756Z,22.60
2023-05-23T08:03:55.693Z,22.60
2023-05-23T08:06:29.548Z,22.70
2023-05-23T08:08:59.566Z,22.70
2023-05-23T08:11:28.820Z,22.80
2023-05-23T08:13:56.014Z,22.90
2023-05-23T08:16:38.157Z,22.90
2023-05-23T08:19:10.491Z,23.00
2023-05-23T08:21:38.178Z,23.00
2023-05-23T08:24:05.072Z,23.10
2023-05-23T08:26:34.981Z,23.10
2023-05-23T08:29:03.909Z,23.20
2023-05-23T08:31:33.275Z,23.30
2023-05-23T08:34:01.459Z,23.30
2023-05-23T08:36:29.515Z,23.30
2023-05-23T08:38:56.484Z,23.30
2023-05-23T08:41:33.038Z,23.40
2023-05-23T08:44:07.305Z,23.40
2023-05-23T08:46:44.592Z,23.40
2023-05-23T08:49:14.924Z,23.40
2023-05-23T08:51:43.697Z,23.40
2023-05-23T08:54:17.187Z,23.40
2023-05-23T08:56:44.699Z,23.50
2023-05-23T08:59:14.691Z,23.50
2023-05-23T09:01:46.207Z,23.50
2023-05-23T09:04:14.813Z,23.60
2023-05-23T09:06:49.414Z,23.60
2023-05-23T09:09:16.409Z,23.60
2023-05-23T09:11:45.964Z,23.70
2023-05-23T09:14:14.681Z,23.70
2023-05-23T09:16:48.073Z,23.70
2023-05-23T09:19:19.065Z,23.70
2023-05-23T09:21:53.906Z,23.70
2023-05-23T09:24:34.974Z,23.80
2023-05-23T09:27:03.112Z,23.80
2023-05-23T09:29:30.972Z,23.80
2023-05-23T09:32:14.485Z,23.90
2023-05-23T09:34:43.032Z,23.90
2023-05-23T09:37:13.512Z,23.90
2023-05-23T09:39:45.902Z,24.00
2023-05-23T09:42:18.555Z,24.00
2023-05-23T09:44:45.451Z,24.00
2023-05-23T09:47:12.482Z,24.00
2023-05-23T09:49:41.424Z,24.00
2023-05-23T09:52:08.359Z,24.10
2023-05-23T09:54:35.329Z,24.00
2023-05-23T09:57:03.140Z,24.10
2023-05-23T09:59:32.375Z,24.10
2023-05-23T10:02:02.471Z,24.10
2023-05-23T10:04:32.771Z,24.10
2023-05-23T10:07:07.957Z,24.10
2023-05-23T10:09:38.098Z,24.10
2023-05-23T10:12:39.332Z,24.10
2023-05-23T10:15:08.990Z,24.10
2023-05-23T10:18:15.091Z,24.00
2023-05-23T10:20:47.640Z,24.00
2023-05-23T10:23:16.249Z,24.00
2023-05-23T10:25:44.618Z,24.00
2023-05-23T10:28:13.779Z,23.90
2023-05-23T10:30:41.562Z,23.90
2023-05-23T10:33:09.718Z,23.90
2023-05-23T10:36:11.935Z,23.90
2023-05-23T10:38:51.684Z,23.90
2023-05-23T10:41:36.695Z,23.90
2023-05-23T10:44:37.437Z,23.90
2023-05-23T10:47:05.112Z,23.90
2023-05-23T10:49:45.982Z,23.90
2023-05-23T10:52:15.076Z,23.90
2023-05-23T10:54:54.084Z,24.00
2023-05-23T10:57:25.660Z,24.00
2023-05-23T10:59:52.723Z,24.00
2023-05-23T11:02:25.619Z,24.00
2023-05-23T11:05:25.050Z,24.10
2023-05-23T11:08:15.237Z,24.10
2023-05-23T11:10:55.472Z,24.10
2023-05-23T11:13:23.483Z,24.10
2023-05-23T11:15:50.929Z,24.10
2023-05-23T11:18:26.763Z,24.10
2023-05-23T11:20:55.012Z,24.10
2023-05-23T11:23:22.838Z,24.10
2023-05-23T11:25:52.088Z,24.10
2023-05-23T11:28:19.798Z,24.10
2023-05-23T11:30:50.114Z,24.10
2023-05-23T11:33:18.370Z,24.10
2023-05-23T11:35:49.762Z,24.10
2023-05-23T11:38:17.290Z,24.10
2023-05-23T11:40:46.442Z,24.20
2023-05-23T11:43:18.247Z,24.20
2023-05-23T11:45:48.434Z,24.20
2023-05-23T11:48:17.082Z,24.30
2023-05-23T11:50:49.419Z,24.30
2023-05-23T11:53:19.114Z,24.30
2023-05-23T11:55:50.678Z,24.30
2023-05-23T11:58:17.912Z,24.30
2023-05-23T12:00:45.880Z,24.40
2023-05-23T12:03:13.010Z,24.40
2023-05-23T12:05:42.708Z,24.40
2023-05-23T12:08:12.321Z,24.50
2023-05-23T12:10:59.130Z,24.50
2023-05-23T12:13:28.198Z,24.50
2023-05-23T12:16:00.431Z,24.60
2023-05-23T12:18:32.018Z,24.60
2023-05-23T12:21:08.025Z,24.60
2023-05-23T12:23:36.136Z,24.60
2023-05-23T12:26:07.302Z,24.70
2023-05-23T12:28:43.221Z,24.70
2023-05-23T12:31:28.044Z,24.70
2023-05-23T12:33:54.985Z,24.70
2023-05-23T12:36:29.044Z,24.70
2023-05-23T12:39:02.805Z,24.70
2023-05-23T12:41:30.018Z,24.70
2023-05-23T12:43:57.318Z,24.80
2023-05-23T12:46:26.207Z,24.80
2023-05-23T12:48:53.992Z,24.90
2023-05-23T12:51:21.562Z,24.90
2023-05-23T12:53:48.673Z,24.90
2023-05-23T12:56:15.589Z,24.90
2023-05-23T12:58:43.039Z,24.90
2023-05-23T13:01:09.932Z,24.90
2023-05-23T13:03:36.868Z,24.90
2023-05-23T13:06:03.937Z,24.80
2023-05-23T13:08:30.870Z,24.80
2023-05-23T13:10:58.289Z,24.80
2023-05-23T13:13:26.746Z,24.80
2023-05-23T13:15:53.594Z,24.80
2023-05-23T13:18:20.477Z,24.80
2023-05-23T13:20:47.369Z,24.80
2023-05-23T13:23:14.336Z,24.80
2023-05-23T13:25:41.541Z,24.90
2023-05-23T13:28:08.658Z,24.90
2023-05-23T13:30:35.802Z,24.90
2023-05-23T13:33:04.938Z,24.90
2023-05-23T13:35:31.822Z,24.90
2023-05-23T13:37:58.651Z,24.90
2023-05-23T13:40:25.607Z,24.90
2023-05-23T13:42:52.504Z,24.80
2023-05-23T13:45:20.234Z,24.80
2023-05-23T13:47:47.446Z,24.80
2023-05-23T13:50:14.806Z,24.80
2023-05-23T13:52:44.887Z,24.80
2023-05-23T13:55:13.462Z,24.80
2023-05-23T13:57:40.305Z,24.80
2023-05-23T14:00:09.472Z,24.80
2023-05-23T14:02:36.495Z,24.70
2023-05-23T14:05:04.880Z,24.70
2023-05-23T14:07:32.272Z,24.70
2023-05-23T14:09:59.898Z,24.70
2023-05-23T14:12:27.128Z,24.70
2023-05-23T14:14:54.092Z,24.60
2023-05-23T14:17:21.111Z,24.60
2023-05-23T14:19:48.158Z,24.60
2023-05-23T14:22:15.454Z,24.70
2023-05-23T14:24:42.511Z,24.60
2023-05-23T14:27:11.093Z,24.60
2023-05-23T14:29:38.749Z,24.60
2023-05-23T14:32:06.116Z,24.60
2023-05-23T14:34:33.094Z,24.60
2023-05-23T14:37:01.262Z,24.60
2023-05-23T14:39:29.173Z,24.50
2023-05-23T14:41:56.369Z,24.60
2023-05-23T14:44:23.381Z,24.50
2023-05-23T14:46:50.373Z,24.50
2023-05-23T14:49:20.345Z,24.50
2023-05-23T14:51:51.178Z,24.50
2023-05-23T14:54:18.962Z,24.50
2023-05-23T14:56:46.147Z,24.50
2023-05-23T14:59:13.191Z,24.50
2023-05-23T15:01:41.112Z,24.50
2023-05-23T15:04:09.680Z,24.50
2023-05-23T15:06:37.974Z,24.40
2023-05-23T15:09:05.301Z,24.40
2023-05-23T15:11:33.112Z,24.30
2023-05-23T15:13:59.901Z,24.30
2023-05-23T15:16:27.323Z,24.20
2023-05-23T15:18:54.204Z,24.30
2023-05-23T15:21:21.250Z,24.20
2023-05-23T15:23:48.267Z,24.20
2023-05-23T15:26:15.072Z,24.10
2023-05-23T15:28:41.978Z,24.10
2023-05-23T15:31:08.951Z,24.10
2023-05-23T15:33:35.940Z,24.00
2023-05-23T15:36:02.897Z,24.00
2023-05-23T15:38:29.743Z,24.00
2023-05-23T15:40:56.799Z,24.00
2023-05-23T15:43:25.086Z,23.90
2023-05-23T15:45:52.898Z,23.90
2023-05-23T15:48:20.035Z,23.90
2023-05-23T15:50:47.021Z,23.90
2023-05-23T15:53:13.873Z,23.80
2023-05-23T15:55:42.596Z,23.80
2023-05-23T15:58:10.642Z,23.80
2023-05-23T16:00:37.771Z,23.80
2023-05-23T16:03:04.691Z,23.70
2023-05-23T16:05:31.608Z,23.70
2023-05-23T16:07:58.604Z,23.70
2023-05-23T16:10:25.764Z,23.70
2023-05-23T16:12:52.744Z,23.70
2023-05-23T16:15:19.689Z,23.60
2023-05-23T16:17:46.680Z,23.60
2023-05-23T16:20:13.744Z,23.60
2023-05-23T16:22:41.359Z,23.60
2023-05-23T16:25:10.182Z,23.60
2023-05-23T16:27:37.141Z,23.60
2023-05-23T16:30:04.653Z,23.60
2023-05-23T16:32:31.563Z,23.50
2023-05-23T16:34:58.570Z,23.50
2023-05-23T16:37:25.637Z,23.50
2023-05-23T16:39:52.464Z,23.50
2023-05-23T16:42:19.423Z,23.50
2023-05-23T16:44:46.288Z,23.50
2023-05-23T16:47:13.209Z,23.50
2023-05-23T16:49:40.061Z,23.50
2023-05-23T16:52:06.981Z,23.50
2023-05-23T16:54:33.966Z,23.50
2023-05-23T16:57:02.022Z,23.50
2023-05-23T16:59:29.978Z,23.50
2023-05-23T17:01:57.394Z,23.40
2023-05-23T17:04:24.320Z,23.50
2023-05-23T17:06:51.432Z,23.50
2023-05-23T17:09:18.429Z,23.50
2023-05-23T17:11:45.441Z,23.40
2023-05-23T17:14:12.479Z,23.40
2023-05-23T17:16:39.561Z,23.40
2023-05-23T17:19:06.796Z,23.40
2023-05-23T17:21:33.816Z,23.40
2023-05-23T17:24:00.718Z,23.40
2023-05-23T17:26:27.767Z,23.30
2023-05-23T17:28:54.680Z,23.30
2023-05-23T17:31:21.647Z,23.30
2023-05-23T17:33:48.498Z,23.30
2023-05-23T17:36:15.402Z,23.20
2023-05-23T17:38:42.335Z,23.20
2023-05-23T17:41:09.332Z,23.10
2023-05-23T17:43:36.198Z,23.10
2023-05-23T17:46:03.041Z,23.00
2023-05-23T17:48:45.698Z,22.90
2023-05-23T17:51:14.007Z,22.80
2023-05-23T17:53:41.735Z,22.80
2023-05-23T17:56:09.446Z,22.70
2023-05-23T17:58:38.171Z,22.70
2023-05-23T18:01:05.929Z,22.60
2023-05-23T18:03:33.016Z,22.60
2023-05-23T18:06:00.297Z,22.60
2023-05-23T18:08:27.204Z,22.50
2023-05-23T18:10:54.046Z,22.50
2023-05-23T18:13:21.320Z,22.50
2023-05-23T18:15:48.299Z,22.40
2023-05-23T18:18:17.043Z,22.40
2023-05-23T18:20:44.833Z,22.40
2023-05-23T18:23:12.087Z,22.40
2023-05-23T18:25:39.568Z,22.30
2023-05-23T18:28:06.584Z,22.30
2023-05-23T18:30:34.305Z,22.30
2023-05-23T18:33:01.414Z,22.20
2023-05-23T18:35:28.479Z,22.20
2023-05-23T18:37:56.010Z,22.10
2023-05-23T18:40:24.257Z,22.10
2023-05-23T18:42:52.560Z,22.10
2023-05-23T18:45:19.983Z,22.00
2023-05-23T18:47:46.918Z,22.00
2023-05-23T18:50:14.320Z,21.90
2023-05-23T18:52:42.218Z,21.90
2023-05-23T18:55:09.732Z,21.80
2023-05-23T18:57:37.068Z,21.80
2023-05-23T19:00:05.252Z,21.70
2023-05-23T19:02:32.481Z,21.70
2023-05-23T19:04:59.488Z,21.70
2023-05-23T19:07:26.470Z,21.60
2023-05-23T19:09:53.599Z,21.60
2023-05-23T19:12:20.662Z,21.50
2023-05-23T19:14:47.879Z,21.50
2023-05-23T19:17:15.006Z,21.50
2023-05-23T19:19:42.102Z,21.40
2023-05-23T19:22:09.592Z,21.40
2023-05-23T19:24:38.022Z,21.40
2023-05-23T19:27:05.274Z,21.30
2023-05-23T19:29:32.192Z,21.30
2023-05-23T19:31:59.054Z,21.20
2023-05-23T19:34:26.182Z,21.10
2023-05-23T19:36:53.037Z,21.10
2023-05-23T19:39:19.995Z,21.10
2023-05-23T19:41:46.838Z,21.00
2023-05-23T19:44:13.665Z,21.00
2023-05-23T19:46:40.533Z,21.00
2023-05-23T19:49:08.395Z,20.90
2023-05-23T19:51:36.642Z,20.90
2023-05-23T19:54:03.950Z,20.80
2023-05-23T19:56:30.836Z,20.80
2023-05-23T19:58:57.656Z,20.80
2023-05-23T20:01:26.025Z,20.80
2023-05-23T20:03:52.975Z,20.70
2023-05-23T20:06:20.694Z,20.70
2023-05-23T20:08:47.694Z,20.70
2023-05-23T20:11:14.565Z,20.70
2023-05-23T20:13:41.367Z,20.60
2023-05-23T20:16:09.308Z,20.60
2023-05-23T20:18:36.440Z,20.60
2023-05-23T20:21:05.206Z,20.60
2023-05-23T20:23:32.680Z,20.60
2023-05-23T20:26:00.204Z,20.60
2023-05-23T20:28:27.643Z,20.60
2023-05-23T20:30:54.526Z,20.50
2023-05-23T20:33:21.920Z,20.50
2023-05-23T20:35:48.852Z,20.50
2023-05-23T20:38:18.564Z,20.50
2023-05-23T20:40:46.271Z,20.40
2023-05-23T20:43:15.009Z,20.40
2023-05-23T20:45:42.209Z,20.30
2023-05-23T20:48:09.304Z,20.30
2023-05-23T20:50:36.656Z,20.30
2023-05-23T20:53:03.846Z,20.20
2023-05-23T20:55:30.671Z,20.20
2023-05-23T20:57:57.493Z,20.10
2023-05-23T21:00:24.375Z,20.10
2023-05-23T21:02:51.505Z,20.00
2023-05-23T21:05:18.526Z,20.00
2023-05-23T21:07:45.657Z,19.90
2023-05-23T21:10:12.527Z,19.80
2023-05-23T21:12:39.348Z,19.80
2023-05-23T21:15:06.701Z,19.70
2023-05-23T21:17:33.547Z,19.60
2023-05-23T21:20:00.459Z,19.60
2023-05-23T21:22:27.258Z,19.50
2023-05-23T21:24:54.112Z,19.40
2023-05-23T21:27:21.069Z,19.40
2023-05-23T21:29:47.959Z,19.30
2023-05-23T21:32:14.805Z,19.30
2023-05-23T21:34:41.652Z,19.30
2023-05-23T21:37:08.644Z,19.20
2023-05-23T21:39:50.052Z,19.10
2023-05-23T21:42:18.688Z,19.10
2023-05-23T21:44:45.762Z,19.00
2023-05-23T21:47:12.863Z,19.00
2023-05-23T21:49:40.400Z,18.90
2023-05-23T21:52:07.692Z,18.80
2023-05-23T21:54:34.815Z,18.80
2023-05-23T21:57:01.654Z,18.80
2023-05-23T21:59:28.490Z,18.70
2023-05-23T22:01:55.587Z,18.70
2023-05-23T22:04:22.454Z,18.60
2023-05-23T22:06:49.328Z,18.60
2023-05-23T22:09:16.362Z,18.60
2023-05-23T22:11:43.373Z,18.60
2023-05-23T22:14:10.712Z,18.60
2023-05-23T22:16:40.663Z,18.50
2023-05-23T22:19:09.900Z,18.60
2023-05-23T22:21:37.115Z,18.50
2023-05-23T22:24:04.617Z,18.50
2023-05-23T22:26:32.137Z,18.50
2023-05-23T22:28:59.156Z,18.50
2023-05-23T22:31:26.491Z,18.50
2023-05-23T22:33:53.528Z,18.50
2023-05-23T22:36:22.037Z,18.50
2023-05-23T22:38:49.013Z,18.40
2023-05-23T22:41:15.876Z,18.40
2023-05-23T22:43:42.824Z,18.40
2023-05-23T22:46:09.652Z,18.40
2023-05-23T22:48:36.645Z,18.40
2023-05-23T22:51:03.607Z,18.40
2023-05-23T22:53:30.430Z,18.30
2023-05-23T22:55:57.608Z,18.30
2023-05-23T22:58:24.455Z,18.30
2023-05-23T23:00:51.515Z,18.30
2023-05-23T23:03:18.534Z,18.30
2023-05-23T23:05:45.632Z,18.30
2023-05-23T23:08:12.785Z,18.30
2023-05-23T23:10:41.446Z,18.20
2023-05-23T23:13:08.602Z,18.20
2023-05-23T23:15:36.693Z,18.20
2023-05-23T23:18:05.875Z,18.20
2023-05-23T23:20:33.316Z,18.20
2023-05-23T23:23:00.358Z,18.20
2023-05-23T23:25:27.341Z,18.20
2023-05-23T23:27:54.183Z,18.20
2023-05-23T23:30:21.152Z,18.20
2023-05-23T23:32:48.113Z,18.10
2023-05-23T23:35:15.315Z,18.20
2023-05-23T23:37:42.197Z,18.10
2023-05-23T23:40:10.009Z,18.20
2023-05-23T23:42:37.127Z,18.20
2023-05-23T23:45:04.917Z,18.20
2023-05-23T23:47:32.569Z,18.20
2023-05-23T23:49:59.492Z,18.20
2023-05-23T23:52:28.064Z,18.20
2023-05-23T23:54:55.057Z,18.20
2023-05-23T23:57:21.950Z,18.20
2023-05-23T23:59:49.000Z,18.10
